Time;durP1;ratioP1;P1;durP2;ratioP2;P2;SDS_P1;SDS_P2;PMS_P1;PMS_P2;Temp;Humidity;BMP_temperature;BMP_pressure;BME280_temperature;BME280_humidity;BME280_pressure;Samples;Min_cycle;Max_cycle;Signal;HPM_P1;HPM_P2
2022/07/30 00:01:12;;;;;;;;;;;20.20;52.10;;;;;;5164100;27;19923;-47
2022/07/30 00:03:38;;;;;;;;;;;20.30;51.70;;;;;;5151684;27;20055;-51
2022/07/30 00:06:04;;;;;;;;;;;20.10;53.30;;;;;;5146410;27;19980;-48
2022/07/30 00:08:30;;;;;;;;;;;20.70;58.60;;;;;;5164950;27;20009;-46
2022/07/30 00:10:55;;;;;;;;;;;21.50;59.40;;;;;;5170002;27;20307;-49
2022/07/30 00:13:21;;;;;;;;;;;21.80;58.00;;;;;;5164802;27;20301;-46
2022/07/30 00:15:47;;;;;;;;;;;20.90;56.00;;;;;;5164065;27;20321;-57
2022/07/30 00:18:13;;;;;;;;;;;20.70;54.50;;;;;;5168733;27;20220;-50
2022/07/30 00:20:39;;;;;;;;;;;20.30;53.90;;;;;;5144451;27;19939;-49
2022/07/30 00:23:05;;;;;;;;;;;20.30;53.20;;;;;;5169814;27;20423;-46
2022/07/30 00:25:31;;;;;;;;;;;20.20;52.70;;;;;;5164400;27;19923;-46
2022/07/30 00:27:57;;;;;;;;;;;19.90;52.60;;;;;;5164193;27;20378;-46
2022/07/30 00:30:22;;;;;;;;;;;19.90;52.20;;;;;;5169562;27;20013;-49
2022/07/30 00:32:48;;;;;;;;;;;20.10;54.50;;;;;;5164156;27;19923;-49
2022/07/30 00:35:14;;;;;;;;;;;20.80;58.80;;;;;;5162485;27;19973;-49
2022/07/30 00:37:40;;;;;;;;;;;21.50;59.40;;;;;;5169063;27;20129;-50
2022/07/30 00:40:06;;;;;;;;;;;21.70;57.50;;;;;;5164187;27;19930;-46
2022/07/30 00:42:39;;;;;;;;;;;21.00;55.90;;;;;;5151339;27;20025;-46
2022/07/30 00:45:05;;;;;;;;;;;20.80;54.40;;;;;;5141557;27;19923;-49
2022/07/30 00:47:31;;;;;;;;;;;20.40;53.80;;;;;;5163961;27;19929;-46
2022/07/30 00:49:57;;;;;;;;;;;20.30;53.20;;;;;;5169654;27;20310;-48
2022/07/30 00:52:23;;;;;;;;;;;20.00;53.00;;;;;;5142441;27;20394;-48
2022/07/30 00:54:48;;;;;;;;;;;20.10;52.80;;;;;;5163020;27;19929;-49
2022/07/30 00:57:14;;;;;;;;;;;20.10;52.00;;;;;;5169257;27;19951;-54
2022/07/30 00:59:40;;;;;;;;;;;20.00;56.10;;;;;;5163033;27;19926;-51
2022/07/30 01:02:05;;;;;;;;;;;20.80;59.80;;;;;;5168146;27;20367;-56
2022/07/30 01:04:31;;;;;;;;;;;21.60;59.40;;;;;;5165329;27;19930;-49
2022/07/30 01:06:57;;;;;;;;;;;21.30;57.30;;;;;;5163811;27;19933;-46
2022/07/30 01:09:23;;;;;;;;;;;20.80;55.50;;;;;;5169290;27;19930;-51
2022/07/30 01:11:49;;;;;;;;;;;20.30;54.40;;;;;;5162035;27;20455;-49
2022/07/30 01:14:14;;;;;;;;;;;20.30;53.10;;;;;;5162836;27;19923;-47
2022/07/30 01:16:41;;;;;;;;;;;20.00;52.80;;;;;;5168750;27;19975;-46
2022/07/30 01:21:59;;;;;;;;;;;19.80;52.30;;;;;;5159510;27;20116;-47
2022/07/30 01:24:26;;;;;;;;;;;20.50;58.40;;;;;;5169055;27;19945;-49
2022/07/30 01:26:52;;;;;;;;;;;21.20;59.90;;;;;;5163543;27;19927;-46
2022/07/30 01:29:18;;;;;;;;;;;21.80;58.10;;;;;;5144780;27;19966;-56
2022/07/30 01:31:43;;;;;;;;;;;21.10;56.20;;;;;;5166299;27;19978;-46
2022/07/30 01:34:11;;;;;;;;;;;20.80;54.70;;;;;;5142609;27;19931;-50
2022/07/30 01:36:37;;;;;;;;;;;20.30;54.10;;;;;;5150208;27;19922;-49
2022/07/30 01:39:03;;;;;;;;;;;20.30;53.20;;;;;;5163532;27;20056;-45
2022/07/30 01:41:29;;;;;;;;;;;19.90;52.90;;;;;;5144505;27;20013;-50
2022/07/30 01:43:55;;;;;;;;;;;20.00;52.10;;;;;;5164400;27;19934;-49
2022/07/30 01:46:21;;;;;;;;;;;19.70;52.00;;;;;;5162900;27;19931;-51
2022/07/30 01:48:47;;;;;;;;;;;20.30;57.20;;;;;;5161542;27;19929;-50
2022/07/30 01:51:12;;;;;;;;;;;21.10;59.30;;;;;;5167728;27;20300;-48
2022/07/30 01:53:39;;;;;;;;;;;21.80;58.90;;;;;;5163030;27;20397;-49
2022/07/30 01:56:05;;;;;;;;;;;21.30;56.30;;;;;;5150472;27;19999;-46
2022/07/30 01:58:31;;;;;;;;;;;20.80;54.80;;;;;;5162869;27;19939;-46
2022/07/30 02:00:57;;;;;;;;;;;20.30;54.50;;;;;;5144341;27;19926;-46
2022/07/30 02:03:24;;;;;;;;;;;20.30;53.30;;;;;;5168456;27;19927;-45
2022/07/30 02:05:51;;;;;;;;;;;20.30;52.50;;;;;;5161551;27;20013;-46
2022/07/30 02:08:26;;;;;;;;;;;20.20;52.20;;;;;;5161708;27;20229;-47
2022/07/30 02:10:56;;;;;;;;;;;20.00;51.60;;;;;;5167450;27;20068;-46
2022/07/30 02:13:25;;;;;;;;;;;20.10;55.50;;;;;;5144022;27;19927;-46
2022/07/30 02:15:50;;;;;;;;;;;20.80;59.30;;;;;;5162914;27;19923;-48
2022/07/30 02:18:17;;;;;;;;;;;21.60;59.10;;;;;;5168214;27;19922;-46
2022/07/30 02:20:44;;;;;;;;;;;21.10;56.90;;;;;;5143954;27;20381;-46
2022/07/30 02:23:10;;;;;;;;;;;20.60;55.60;;;;;;5167778;27;20009;-46
2022/07/30 02:25:36;;;;;;;;;;;20.30;54.30;;;;;;5160844;27;20014;-50
2022/07/30 02:28:04;;;;;;;;;;;20.30;53.10;;;;;;5143349;27;19970;-47
2022/07/30 02:30:31;;;;;;;;;;;20.10;52.60;;;;;;5145371;27;19940;-46
2022/07/30 02:32:59;;;;;;;;;;;19.80;52.30;;;;;;5162275;27;19923;-48
2022/07/30 02:35:25;;;;;;;;;;;20.00;57.30;;;;;;5143874;27;20260;-50
2022/07/30 02:37:51;;;;;;;;;;;20.90;59.50;;;;;;5167694;27;19927;-48
2022/07/30 02:40:18;;;;;;;;;;;21.60;59.10;;;;;;5162130;27;19952;-46
2022/07/30 02:42:44;;;;;;;;;;;21.30;56.60;;;;;;5165177;27;20030;-56
2022/07/30 02:45:10;;;;;;;;;;;20.70;55.20;;;;;;5144140;27;19931;-47
2022/07/30 02:47:36;;;;;;;;;;;20.30;54.10;;;;;;5143380;27;20373;-49
2022/07/30 02:50:02;;;;;;;;;;;20.20;53.10;;;;;;5147141;27;19937;-47
2022/07/30 02:52:28;;;;;;;;;;;19.90;52.80;;;;;;5143499;27;19933;-46
2022/07/30 02:54:54;;;;;;;;;;;19.80;52.10;;;;;;5143284;27;20298;-47
2022/07/30 02:57:20;;;;;;;;;;;20.00;54.30;;;;;;5167479;27;19923;-48
2022/07/30 02:59:45;;;;;;;;;;;20.70;59.00;;;;;;5161922;27;20396;-47
2022/07/30 03:02:11;;;;;;;;;;;21.30;59.40;;;;;;5143397;27;19927;-57
2022/07/30 03:04:37;;;;;;;;;;;21.60;57.60;;;;;;5146657;27;19927;-47
2022/07/30 03:07:04;;;;;;;;;;;20.70;56.00;;;;;;5161722;27;19967;-47
2022/07/30 03:09:29;;;;;;;;;;;20.40;54.30;;;;;;5167439;27;19927;-47
2022/07/30 03:11:55;;;;;;;;;;;20.30;53.10;;;;;;5161856;27;19953;-49
2022/07/30 03:14:21;;;;;;;;;;;20.00;53.00;;;;;;5161826;27;20289;-47
2022/07/30 03:16:50;;;;;;;;;;;19.70;52.60;;;;;;5167157;27;19923;-47
2022/07/30 03:19:16;;;;;;;;;;;19.70;52.10;;;;;;5141327;27;20017;-48
2022/07/30 03:21:42;;;;;;;;;;;20.20;57.10;;;;;;5142305;27;19930;-53
2022/07/30 03:24:08;;;;;;;;;;;20.90;59.50;;;;;;5152144;27;19947;-48
2022/07/30 03:26:34;;;;;;;;;;;21.70;58.80;;;;;;5146698;27;19934;-47
2022/07/30 03:29:00;;;;;;;;;;;21.00;56.60;;;;;;5170775;27;20411;-48
2022/07/30 03:31:26;;;;;;;;;;;20.50;54.90;;;;;;5145195;27;20327;-48
2022/07/30 03:33:52;;;;;;;;;;;20.30;53.80;;;;;;5164863;27;19978;-47
2022/07/30 03:36:17;;;;;;;;;;;20.00;53.00;;;;;;5170658;27;19933;-47
2022/07/30 03:38:43;;;;;;;;;;;19.80;52.30;;;;;;5163475;27;19927;-50
2022/07/30 03:41:09;;;;;;;;;;;20.00;56.00;;;;;;5144197;27;20609;-48
2022/07/30 03:43:35;;;;;;;;;;;20.80;59.30;;;;;;5170341;27;19930;-49
2022/07/30 03:46:03;;;;;;;;;;;21.60;58.70;;;;;;5145764;27;19962;-47
2022/07/30 03:48:29;;;;;;;;;;;21.30;56.40;;;;;;5152238;27;20017;-53
2022/07/30 03:50:55;;;;;;;;;;;20.60;55.30;;;;;;5146680;27;19923;-49
2022/07/30 03:53:23;;;;;;;;;;;20.30;54.10;;;;;;5165113;27;19971;-48
2022/07/30 03:55:50;;;;;;;;;;;20.10;53.30;;;;;;5151189;27;19922;-50
2022/07/30 03:58:15;;;;;;;;;;;19.90;52.40;;;;;;5163665;27;20417;-51
2022/07/30 04:00:41;;;;;;;;;;;19.80;52.00;;;;;;5164792;27;19923;-48
2022/07/30 04:03:07;;;;;;;;;;;19.90;55.40;;;;;;5170460;27;20257;-46
2022/07/30 04:05:33;;;;;;;;;;;20.70;59.30;;;;;;5146047;27;19965;-45
2022/07/30 04:07:59;;;;;;;;;;;21.50;58.70;;;;;;5146887;27;19927;-58
2022/07/30 04:10:24;;;;;;;;;;;21.20;56.50;;;;;;5167813;27;19931;-47
2022/07/30 04:12:50;;;;;;;;;;;20.70;55.40;;;;;;5164352;27;19957;-49
2022/07/30 04:15:16;;;;;;;;;;;20.50;53.90;;;;;;5168514;27;19983;-51
2022/07/30 04:17:43;;;;;;;;;;;20.10;52.90;;;;;;5163798;27;19930;-48
2022/07/30 04:20:09;;;;;;;;;;;20.10;52.20;;;;;;5163974;27;19927;-48
2022/07/30 04:22:35;;;;;;;;;;;19.90;51.50;;;;;;5150725;27;20024;-51
2022/07/30 04:25:01;;;;;;;;;;;20.50;57.60;;;;;;5144681;27;19979;-48
2022/07/30 04:27:27;;;;;;;;;;;21.20;58.80;;;;;;5164154;27;19926;-49
2022/07/30 04:29:53;;;;;;;;;;;21.50;57.10;;;;;;5169805;27;19927;-50
2022/07/30 04:32:19;;;;;;;;;;;20.70;55.60;;;;;;5163455;27;19922;-46
2022/07/30 04:34:48;;;;;;;;;;;20.30;54.20;;;;;;5168099;27;19923;-47
2022/07/30 04:37:15;;;;;;;;;;;20.30;52.80;;;;;;5163902;27;20366;-51
2022/07/30 04:39:40;;;;;;;;;;;20.00;52.30;;;;;;5164122;27;19929;-47
2022/07/30 04:42:06;;;;;;;;;;;19.90;53.70;;;;;;5169894;27;19926;-47
2022/07/30 04:44:33;;;;;;;;;;;20.70;58.50;;;;;;5164274;27;19923;-47
2022/07/30 04:46:59;;;;;;;;;;;21.30;58.50;;;;;;5164056;27;20249;-47
2022/07/30 04:49:24;;;;;;;;;;;21.30;56.30;;;;;;5150562;27;19928;-48
2022/07/30 04:51:50;;;;;;;;;;;20.70;54.80;;;;;;5162283;27;19923;-46
2022/07/30 04:54:16;;;;;;;;;;;20.50;53.70;;;;;;5168727;27;19929;-48
2022/07/30 04:56:45;;;;;;;;;;;20.00;53.30;;;;;;5163663;27;19935;-46
2022/07/30 04:59:11;;;;;;;;;;;19.90;52.50;;;;;;5145484;27;19929;-47
2022/07/30 05:01:37;;;;;;;;;;;19.90;51.80;;;;;;5169338;27;19923;-48
2022/07/30 05:04:03;;;;;;;;;;;20.10;56.50;;;;;;5163728;27;20470;-46
2022/07/30 05:06:29;;;;;;;;;;;20.90;58.90;;;;;;5143011;27;19966;-48
2022/07/30 05:08:55;;;;;;;;;;;21.70;57.70;;;;;;5168847;27;20098;-48
2022/07/30 05:11:21;;;;;;;;;;;20.90;56.00;;;;;;5142421;27;20500;-46
2022/07/30 05:13:50;;;;;;;;;;;20.40;54.50;;;;;;5165719;27;20318;-54
2022/07/30 05:16:16;;;;;;;;;;;20.20;53.10;;;;;;5168225;27;20021;-47
2022/07/30 05:18:41;;;;;;;;;;;20.10;52.70;;;;;;5163727;27;20063;-46
2022/07/30 05:21:07;;;;;;;;;;;19.70;52.60;;;;;;5168880;27;19934;-49
2022/07/30 05:23:33;;;;;;;;;;;19.90;52.60;;;;;;5163468;27;19923;-46
2022/07/30 05:25:59;;;;;;;;;;;20.50;57.90;;;;;;5163415;27;19966;-51
2022/07/30 05:28:27;;;;;;;;;;;21.20;58.70;;;;;;5167440;27;19929;-49
2022/07/30 05:30:53;;;;;;;;;;;21.60;56.60;;;;;;5162363;27;20013;-46
2022/07/30 05:33:19;;;;;;;;;;;20.80;55.00;;;;;;5162975;27;20301;-50
2022/07/30 05:35:45;;;;;;;;;;;20.30;53.90;;;;;;5169000;27;19929;-46
2022/07/30 05:38:12;;;;;;;;;;;20.20;53.00;;;;;;5163239;27;19927;-47
2022/07/30 05:40:37;;;;;;;;;;;20.10;52.20;;;;;;5168484;27;19953;-49
2022/07/30 05:43:03;;;;;;;;;;;19.90;52.00;;;;;;5162892;27;20438;-47
2022/07/30 05:45:29;;;;;;;;;;;20.20;54.40;;;;;;5143251;27;20018;-48
2022/07/30 05:47:55;;;;;;;;;;;20.80;58.30;;;;;;5148374;27;19930;-49
2022/07/30 05:50:21;;;;;;;;;;;21.60;57.70;;;;;;5162529;27;20037;-46
2022/07/30 05:52:47;;;;;;;;;;;21.20;55.60;;;;;;5162820;27;20336;-47
2022/07/30 05:55:12;;;;;;;;;;;20.60;54.60;;;;;;5150105;27;20017;-45
2022/07/30 05:57:40;;;;;;;;;;;20.50;53.30;;;;;;5163102;27;19930;-47
2022/07/30 06:00:09;;;;;;;;;;;20.20;53.10;;;;;;5168551;27;19978;-49
2022/07/30 06:02:35;;;;;;;;;;;19.80;52.70;;;;;;5164561;27;20164;-46
2022/07/30 06:05:01;;;;;;;;;;;20.00;51.70;;;;;;5161665;27;19927;-51
2022/07/30 06:07:27;;;;;;;;;;;20.10;56.30;;;;;;5167248;27;19923;-52
2022/07/30 06:09:53;;;;;;;;;;;21.00;58.20;;;;;;5143785;27;19926;-51
2022/07/30 06:12:19;;;;;;;;;;;21.80;57.30;;;;;;5162721;27;20458;-47
2022/07/30 06:14:44;;;;;;;;;;;21.30;55.30;;;;;;5168405;27;19979;-47
2022/07/30 06:17:10;;;;;;;;;;;20.90;53.70;;;;;;5162586;27;19923;-47
2022/07/30 06:19:36;;;;;;;;;;;20.50;53.30;;;;;;5164641;27;19923;-56
2022/07/30 06:22:02;;;;;;;;;;;20.50;52.40;;;;;;5166026;27;19937;-47
2022/07/30 06:24:28;;;;;;;;;;;20.10;52.20;;;;;;5161061;27;19923;-46
2022/07/30 06:26:53;;;;;;;;;;;20.20;51.40;;;;;;5167576;27;20579;-49
2022/07/30 06:29:19;;;;;;;;;;;19.90;51.60;;;;;;5162235;27;19933;-49
2022/07/30 06:31:45;;;;;;;;;;;20.30;56.10;;;;;;5162723;27;20084;-46
2022/07/30 06:34:11;;;;;;;;;;;21.10;57.50;;;;;;5168133;27;19923;-47
2022/07/30 06:36:37;;;;;;;;;;;21.80;56.00;;;;;;5162224;27;20330;-46
2022/07/30 06:39:03;;;;;;;;;;;21.00;54.80;;;;;;5143707;27;19938;-53
2022/07/30 06:41:28;;;;;;;;;;;20.50;53.80;;;;;;5166679;27;19922;-46
2022/07/30 06:43:54;;;;;;;;;;;20.10;53.10;;;;;;5161115;27;19929;-48
2022/07/30 06:46:20;;;;;;;;;;;20.20;52.40;;;;;;5167500;27;20011;-46
2022/07/30 06:48:46;;;;;;;;;;;20.00;51.80;;;;;;5162454;27;19975;-46
2022/07/30 06:51:12;;;;;;;;;;;19.90;51.60;;;;;;5143699;27;19926;-46
2022/07/30 06:53:37;;;;;;;;;;;19.80;52.90;;;;;;5167417;27;20001;-47
2022/07/30 06:56:03;;;;;;;;;;;20.60;56.80;;;;;;5161586;27;19927;-46
2022/07/30 06:58:29;;;;;;;;;;;21.30;57.10;;;;;;5161690;27;19923;-46
2022/07/30 07:00:55;;;;;;;;;;;21.70;55.10;;;;;;5165971;27;20349;-52
2022/07/30 07:03:21;;;;;;;;;;;20.80;54.30;;;;;;5161437;27;20360;-45
2022/07/30 07:05:47;;;;;;;;;;;20.40;53.60;;;;;;5147657;27;19923;-48
2022/07/30 07:08:12;;;;;;;;;;;20.30;52.50;;;;;;5161939;27;19927;-47
2022/07/30 07:10:38;;;;;;;;;;;20.10;51.90;;;;;;5161893;27;19934;-46
2022/07/30 07:13:04;;;;;;;;;;;20.00;51.50;;;;;;5167049;27;20290;-47
2022/07/30 07:15:30;;;;;;;;;;;20.10;54.80;;;;;;5161824;27;20009;-46
2022/07/30 07:17:55;;;;;;;;;;;21.00;57.20;;;;;;5160803;27;19938;-46
2022/07/30 07:20:21;;;;;;;;;;;21.80;55.80;;;;;;5165983;27;19931;-47
2022/07/30 07:22:47;;;;;;;;;;;21.10;54.50;;;;;;5161657;27;19923;-46
2022/07/30 07:25:13;;;;;;;;;;;20.60;53.60;;;;;;5167387;27;19927;-47
2022/07/30 07:27:39;;;;;;;;;;;20.40;52.50;;;;;;5161887;27;19929;-45
2022/07/30 07:30:05;;;;;;;;;;;20.10;52.30;;;;;;5161592;27;19927;-49
2022/07/30 07:32:30;;;;;;;;;;;20.00;52.00;;;;;;5167235;27;19932;-49
2022/07/30 07:34:56;;;;;;;;;;;19.90;51.70;;;;;;5161747;27;19923;-48
2022/07/30 07:37:22;;;;;;;;;;;20.50;56.60;;;;;;5160336;27;19927;-47
2022/07/30 07:39:48;;;;;;;;;;;21.40;56.30;;;;;;5166424;27;20277;-46
2022/07/30 07:42:13;;;;;;;;;;;21.60;54.50;;;;;;5161338;27;19930;-46
2022/07/30 07:44:39;;;;;;;;;;;20.90;53.70;;;;;;5166525;27;19931;-57
2022/07/30 07:47:05;;;;;;;;;;;20.40;53.10;;;;;;5162491;27;19927;-48
2022/07/30 07:49:31;;;;;;;;;;;20.20;52.10;;;;;;5161362;27;19923;-47
2022/07/30 07:51:56;;;;;;;;;;;20.00;51.50;;;;;;5166745;27;20372;-45
2022/07/30 07:54:22;;;;;;;;;;;19.80;51.40;;;;;;5160342;27;19927;-48
2022/07/30 07:56:50;;;;;;;;;;;20.10;53.70;;;;;;5159895;27;19927;-47
2022/07/30 07:59:16;;;;;;;;;;;20.90;56.20;;;;;;5166282;27;19954;-47
2022/07/30 08:01:42;;;;;;;;;;;21.80;55.20;;;;;;5160949;27;19961;-49
2022/07/30 08:04:07;;;;;;;;;;;21.10;53.90;;;;;;5163093;27;19923;-53
2022/07/30 08:06:35;;;;;;;;;;;20.60;53.40;;;;;;5146533;27;19995;-46
2022/07/30 08:09:01;;;;;;;;;;;20.30;52.40;;;;;;5163278;27;20017;-46
2022/07/30 08:11:27;;;;;;;;;;;20.20;51.60;;;;;;5170116;27;19937;-46
2022/07/30 08:13:53;;;;;;;;;;;20.00;51.20;;;;;;5162903;27;19929;-50
2022/07/30 08:16:18;;;;;;;;;;;19.90;51.00;;;;;;5163804;27;20267;-47
2022/07/30 08:18:44;;;;;;;;;;;20.50;55.60;;;;;;5170042;27;19923;-46
2022/07/30 08:21:10;;;;;;;;;;;21.30;55.80;;;;;;5164720;27;19923;-47
2022/07/30 08:23:36;;;;;;;;;;;21.60;54.40;;;;;;5164554;27;20389;-47
2022/07/30 08:26:01;;;;;;;;;;;20.80;53.40;;;;;;5169706;27;19993;-45
2022/07/30 08:28:27;;;;;;;;;;;20.60;52.50;;;;;;5164311;27;19934;-48
2022/07/30 08:30:53;;;;;;;;;;;20.30;52.00;;;;;;5169498;27;19922;-50
2022/07/30 08:33:19;;;;;;;;;;;20.20;51.70;;;;;;5158371;27;19974;-48
2022/07/30 08:35:45;;;;;;;;;;;20.10;51.10;;;;;;5164014;27;20006;-47
2022/07/30 08:38:11;;;;;;;;;;;19.90;50.90;;;;;;5169931;27;19969;-45
2022/07/30 08:40:37;;;;;;;;;;;20.00;50.60;;;;;;5164334;27;19970;-47
2022/07/30 08:43:03;;;;;;;;;;;20.20;54.40;;;;;;5164313;27;20259;-46
2022/07/30 08:45:29;;;;;;;;;;;21.00;55.70;;;;;;5169559;27;19927;-46
2022/07/30 08:47:55;;;;;;;;;;;21.80;54.40;;;;;;5163967;27;19982;-46
2022/07/30 08:50:21;;;;;;;;;;;21.20;53.20;;;;;;5164197;27;20022;-49
2022/07/30 08:52:48;;;;;;;;;;;20.60;52.50;;;;;;5162871;27;20370;-48
2022/07/30 08:55:14;;;;;;;;;;;20.40;51.90;;;;;;5163817;27;20164;-47
2022/07/30 08:57:40;;;;;;;;;;;20.20;51.50;;;;;;5169702;27;19929;-46
2022/07/30 09:00:06;;;;;;;;;;;20.10;51.20;;;;;;5164169;27;20354;-46
2022/07/30 09:02:32;;;;;;;;;;;20.10;50.50;;;;;;5163854;27;20154;-46
2022/07/30 09:04:57;;;;;;;;;;;20.10;53.50;;;;;;5169058;27;19948;-52
2022/07/30 09:07:23;;;;;;;;;;;21.00;55.40;;;;;;5163642;27;19923;-47
2022/07/30 09:09:49;;;;;;;;;;;21.80;54.10;;;;;;5167017;27;19956;-58
2022/07/30 09:12:30;;;;;;;;;;;21.30;52.90;;;;;;5145497;27;19942;-49
2022/07/30 09:15:06;;;;;;;;;;;20.70;52.50;;;;;;5163768;27;19929;-45
2022/07/30 09:17:44;;;;;;;;;;;20.30;52.00;;;;;;5169144;27;20413;-49
2022/07/30 09:20:10;;;;;;;;;;;20.30;51.20;;;;;;5168000;27;19927;-46
2022/07/30 09:22:42;;;;;;;;;;;20.10;51.10;;;;;;5163604;27;19922;-50
2022/07/30 09:25:08;;;;;;;;;;;20.00;50.90;;;;;;5169121;27;20066;-45
2022/07/30 09:27:44;;;;;;;;;;;20.00;50.10;;;;;;5161917;27;19956;-47
2022/07/30 09:30:10;;;;;;;;;;;20.20;53.90;;;;;;5162591;27;20283;-47
2022/07/30 09:32:45;;;;;;;;;;;21.20;54.60;;;;;;5168581;27;19930;-46
2022/07/30 09:35:12;;;;;;;;;;;21.80;53.00;;;;;;5163598;27;19924;-48
2022/07/30 09:37:38;;;;;;;;;;;20.90;52.70;;;;;;5163172;27;20309;-46
2022/07/30 09:40:14;;;;;;;;;;;20.30;52.50;;;;;;5149995;27;19971;-45
2022/07/30 09:42:39;;;;;;;;;;;20.30;51.50;;;;;;5163358;27;19929;-45
2022/07/30 09:45:14;;;;;;;;;;;20.20;51.20;;;;;;5161726;27;20147;-46
2022/07/30 09:47:43;;;;;;;;;;;20.20;50.40;;;;;;5167479;27;19922;-47
2022/07/30 09:50:09;;;;;;;;;;;20.10;50.60;;;;;;5144481;27;19926;-48
2022/07/30 09:52:36;;;;;;;;;;;19.90;50.50;;;;;;5163178;27;19927;-54
2022/07/30 09:55:01;;;;;;;;;;;20.50;54.60;;;;;;5168769;27;19954;-47
2022/07/30 09:57:27;;;;;;;;;;;21.30;54.20;;;;;;5162833;27;19923;-48
2022/07/30 09:59:54;;;;;;;;;;;21.60;52.70;;;;;;5168153;27;19929;-45
2022/07/30 10:02:21;;;;;;;;;;;20.70;52.70;;;;;;5162755;27;19922;-46
2022/07/30 10:04:47;;;;;;;;;;;20.30;51.90;;;;;;5142832;27;20298;-46
2022/07/30 10:07:16;;;;;;;;;;;20.20;51.30;;;;;;5167787;27;19923;-46
2022/07/30 10:09:44;;;;;;;;;;;20.10;50.80;;;;;;5162472;27;19934;-47
2022/07/30 10:12:10;;;;;;;;;;;19.90;50.70;;;;;;5144457;27;20233;-48
2022/07/30 10:14:36;;;;;;;;;;;20.40;54.20;;;;;;5168233;27;19976;-47
2022/07/30 10:17:02;;;;;;;;;;;21.30;54.10;;;;;;5142341;27;19923;-45
2022/07/30 10:19:27;;;;;;;;;;;21.80;52.60;;;;;;5149413;27;19971;-52
2022/07/30 10:21:56;;;;;;;;;;;21.00;52.10;;;;;;5142723;27;19930;-46
2022/07/30 10:24:22;;;;;;;;;;;20.70;51.60;;;;;;5161510;27;20059;-45
2022/07/30 10:26:49;;;;;;;;;;;20.30;51.40;;;;;;5167949;27;20339;-46
2022/07/30 10:29:16;;;;;;;;;;;20.20;50.70;;;;;;5162818;27;20313;-49
2022/07/30 10:31:42;;;;;;;;;;;19.90;51.20;;;;;;5143831;27;20352;-47
2022/07/30 10:34:09;;;;;;;;;;;20.00;50.40;;;;;;5149227;27;19922;-51
2022/07/30 10:36:35;;;;;;;;;;;20.10;52.30;;;;;;5143821;27;19922;-51
2022/07/30 10:39:01;;;;;;;;;;;20.90;54.30;;;;;;5162946;27;19961;-54
2022/07/30 10:41:32;;;;;;;;;;;21.80;52.80;;;;;;5165794;27;19987;-47
2022/07/30 10:44:03;;;;;;;;;;;21.20;51.90;;;;;;5161527;27;19922;-47
2022/07/30 10:46:38;;;;;;;;;;;20.70;51.90;;;;;;5148575;27;19970;-46
2022/07/30 10:49:14;;;;;;;;;;;20.50;51.10;;;;;;5164519;27;19939;-46
2022/07/30 10:51:43;;;;;;;;;;;20.30;50.50;;;;;;5161784;27;19923;-47
2022/07/30 10:54:28;;;;;;;;;;;20.30;50.10;;;;;;5167457;27;20017;-46
2022/07/30 10:57:04;;;;;;;;;;;19.90;50.70;;;;;;5166329;27;20014;-49
2022/07/30 10:59:48;;;;;;;;;;;20.00;50.00;;;;;;5160456;27;19923;-49
2022/07/30 11:02:14;;;;;;;;;;;20.70;53.50;;;;;;5162082;27;20014;-56
2022/07/30 11:04:40;;;;;;;;;;;21.70;52.90;;;;;;5167157;27;19922;-46
2022/07/30 11:07:21;;;;;;;;;;;21.50;51.90;;;;;;5162370;27;19927;-46
2022/07/30 11:09:47;;;;;;;;;;;20.90;51.60;;;;;;5148692;27;19923;-48
2022/07/30 11:12:14;;;;;;;;;;;20.50;51.10;;;;;;5161675;27;21235;-48
2022/07/30 11:15:00;;;;;;;;;;;20.30;50.80;;;;;;5143160;27;20376;-48
2022/07/30 11:17:26;;;;;;;;;;;20.20;50.80;;;;;;5165159;27;19922;-46
2022/07/30 11:20:01;;;;;;;;;;;20.20;50.20;;;;;;5142145;27;19934;-49
2022/07/30 11:22:30;;;;;;;;;;;20.00;50.20;;;;;;5161299;27;19926;-49
2022/07/30 11:24:56;;;;;;;;;;;20.10;52.50;;;;;;5167312;27;20292;-46
2022/07/30 11:27:37;;;;;;;;;;;20.90;54.10;;;;;;5143290;27;19948;-47
2022/07/30 11:30:04;;;;;;;;;;;21.80;52.00;;;;;;5161271;27;19923;-47
2022/07/30 11:32:30;;;;;;;;;;;20.90;51.90;;;;;;5167031;27;19923;-50
2022/07/30 11:35:15;;;;;;;;;;;20.80;51.00;;;;;;5161140;27;19922;-48
2022/07/30 11:37:59;;;;;;;;;;;20.50;50.60;;;;;;5160689;27;20043;-49
2022/07/30 11:40:28;;;;;;;;;;;20.20;50.70;;;;;;5166767;27;19961;-47
2022/07/30 11:43:12;;;;;;;;;;;20.20;50.00;;;;;;5162360;27;19923;-46
2022/07/30 11:45:38;;;;;;;;;;;20.20;49.70;;;;;;5165456;27;19937;-46
2022/07/30 11:48:08;;;;;;;;;;;20.30;49.30;;;;;;5170692;27;20262;-49
2022/07/30 11:50:34;;;;;;;;;;;20.20;52.10;;;;;;5146286;27;19948;-49
2022/07/30 11:53:01;;;;;;;;;;;21.10;53.30;;;;;;5164410;27;20301;-47
2022/07/30 11:55:27;;;;;;;;;;;21.90;51.90;;;;;;5168757;27;19927;-47
2022/07/30 11:57:53;;;;;;;;;;;21.10;51.80;;;;;;5164631;27;19933;-47
2022/07/30 12:00:19;;;;;;;;;;;20.60;51.60;;;;;;5165267;27;19938;-53
2022/07/30 12:02:45;;;;;;;;;;;20.40;50.90;;;;;;5170429;27;19926;-45
2022/07/30 12:05:10;;;;;;;;;;;20.30;50.30;;;;;;5164912;27;20017;-46
2022/07/30 12:07:36;;;;;;;;;;;20.30;50.20;;;;;;5151571;27;19923;-46
2022/07/30 12:10:15;;;;;;;;;;;20.10;50.10;;;;;;5164878;27;20419;-46
2022/07/30 12:12:41;;;;;;;;;;;20.00;49.70;;;;;;5163184;27;19929;-47
2022/07/30 12:15:07;;;;;;;;;;;20.20;53.00;;;;;;5169272;27;19931;-47
2022/07/30 12:17:39;;;;;;;;;;;21.30;53.10;;;;;;5164536;27;19930;-47
2022/07/30 12:20:12;;;;;;;;;;;21.90;51.30;;;;;;5164577;27;19929;-46
2022/07/30 12:22:38;;;;;;;;;;;21.00;51.50;;;;;;5151359;27;19922;-46
2022/07/30 12:25:07;;;;;;;;;;;20.80;50.90;;;;;;5164503;27;19977;-50
2022/07/30 12:27:33;;;;;;;;;;;20.30;51.20;;;;;;5164470;27;20224;-47
2022/07/30 12:29:59;;;;;;;;;;;20.30;50.20;;;;;;5169596;27;19934;-46
2022/07/30 12:32:24;;;;;;;;;;;20.30;49.60;;;;;;5144371;27;20263;-48
2022/07/30 12:34:54;;;;;;;;;;;20.00;50.10;;;;;;5169439;27;20021;-46
2022/07/30 12:37:20;;;;;;;;;;;20.10;49.70;;;;;;5164554;27;19926;-46
2022/07/30 12:39:48;;;;;;;;;;;20.10;49.40;;;;;;5164503;27;19940;-47
2022/07/30 12:42:19;;;;;;;;;;;20.00;51.80;;;;;;5169893;27;19929;-48
2022/07/30 12:44:47;;;;;;;;;;;21.00;53.00;;;;;;5164118;27;19927;-46
2022/07/30 12:47:33;;;;;;;;;;;21.80;51.80;;;;;;5164067;27;20178;-46
2022/07/30 12:49:59;;;;;;;;;;;21.30;51.20;;;;;;5163950;27;19949;-49
2022/07/30 12:52:32;;;;;;;;;;;20.70;51.10;;;;;;5144793;27;19936;-54
2022/07/30 12:55:04;;;;;;;;;;;20.30;50.90;;;;;;5163970;27;19922;-51
2022/07/30 12:57:49;;;;;;;;;;;20.30;50.40;;;;;;5169676;27;19929;-45
2022/07/30 13:00:15;;;;;;;;;;;20.20;49.90;;;;;;5163855;27;20021;-48
2022/07/30 13:02:41;;;;;;;;;;;20.20;49.50;;;;;;5163936;27;19933;-47
2022/07/30 13:05:06;;;;;;;;;;;20.10;49.50;;;;;;5169529;27;19923;-46
2022/07/30 13:07:32;;;;;;;;;;;20.30;52.20;;;;;;5162648;27;20412;-49
2022/07/30 13:10:08;;;;;;;;;;;21.30;52.40;;;;;;5163430;27;19929;-56
2022/07/30 13:12:34;;;;;;;;;;;21.80;51.10;;;;;;5169087;27;19931;-47
2022/07/30 13:15:00;;;;;;;;;;;21.00;51.00;;;;;;5163759;27;19940;-46
2022/07/30 13:17:26;;;;;;;;;;;20.70;50.60;;;;;;5169069;27;19953;-48
2022/07/30 13:19:51;;;;;;;;;;;20.50;50.10;;;;;;5163486;27;20369;-47
2022/07/30 13:22:17;;;;;;;;;;;20.30;49.90;;;;;;5163550;27;19991;-46
2022/07/30 13:24:43;;;;;;;;;;;20.30;49.80;;;;;;5168644;27;19927;-53
2022/07/30 13:27:09;;;;;;;;;;;20.20;49.60;;;;;;5162066;27;19923;-48
2022/07/30 13:29:35;;;;;;;;;;;20.30;49.10;;;;;;5162926;27;19945;-45
2022/07/30 13:32:00;;;;;;;;;;;20.00;49.40;;;;;;5168689;27;20293;-48
2022/07/30 13:34:26;;;;;;;;;;;20.00;49.20;;;;;;5163265;27;19927;-47
2022/07/30 13:36:52;;;;;;;;;;;20.20;51.90;;;;;;5168866;27;20381;-50
2022/07/30 13:39:18;;;;;;;;;;;21.20;52.20;;;;;;5163536;27;19933;-45
2022/07/30 13:41:43;;;;;;;;;;;21.90;51.20;;;;;;5163505;27;20514;-45
2022/07/30 13:44:09;;;;;;;;;;;21.30;50.90;;;;;;5167309;27;19930;-45
2022/07/30 13:46:35;;;;;;;;;;;20.90;50.50;;;;;;5162219;27;20058;-47
2022/07/30 13:49:01;;;;;;;;;;;20.70;50.40;;;;;;5162801;27;19987;-47
2022/07/30 13:51:27;;;;;;;;;;;20.40;50.40;;;;;;5168393;27;19965;-46
2022/07/30 13:53:53;;;;;;;;;;;20.30;49.70;;;;;;5163265;27;20400;-46
2022/07/30 13:56:18;;;;;;;;;;;20.30;49.40;;;;;;5166670;27;19926;-55
2022/07/30 13:58:44;;;;;;;;;;;19.90;49.60;;;;;;5165161;27;20987;-46
2022/07/30 14:01:10;;;;;;;;;;;20.10;49.50;;;;;;5163189;27;20024;-47
2022/07/30 14:03:36;;;;;;;;;;;20.80;52.70;;;;;;5167023;27;20051;-46
2022/07/30 14:06:02;;;;;;;;;;;21.70;51.80;;;;;;5161549;27;20290;-47
2022/07/30 14:08:30;;;;;;;;;;;21.50;51.00;;;;;;5162560;27;19927;-45
2022/07/30 14:10:57;;;;;;;;;;;21.10;50.80;;;;;;5168654;27;20043;-47
2022/07/30 14:13:23;;;;;;;;;;;20.70;50.40;;;;;;5162835;27;19927;-46
2022/07/30 14:15:48;;;;;;;;;;;20.60;50.00;;;;;;5163022;27;20330;-51
2022/07/30 14:18:14;;;;;;;;;;;20.40;49.80;;;;;;5168379;27;19922;-47